sensor_id;sensor_type;location;lat;lon;timestamp;temperature;humidity
8684;DHT22;4379;59.744;18.206;2023-12-20T00:01:07;-1.50;99.90
8684;DHT22;4379;59.744;18.206;2023-12-20T00:03:34;-1.50;99.90
8684;DHT22;4379;59.744;18.206;2023-12-20T00:06:09;-1.50;99.90
8684;DHT22;4379;59.744;18.206;2023-12-20T00:08:37;-1.60;99.90
8684;DHT22;4379;59.744;18.206;2023-12-20T00:11:04;-1.60;99.90
8684;DHT22;4379;59.744;18.206;2023-12-20T00:13:31;-1.60;99.90
8684;DHT22;4379;59.744;18.206;2023-12-20T00:15:58;-1.60;99.90
8684;DHT22;4379;59.744;18.206;2023-12-20T00:18:25;-1.60;99.90
8684;DHT22;4379;59.744;18.206;2023-12-20T00:20:52;-1.60;99.90
8684;DHT22;4379;59.744;18.206;2023-12-20T00:23:19;-1.60;99.90
8684;DHT22;4379;59.744;18.206;2023-12-20T00:25:46;-1.70;99.90
8684;DHT22;4379;59.744;18.206;2023-12-20T00:28:14;-1.70;99.90
8684;DHT22;4379;59.744;18.206;2023-12-20T00:30:41;-1.80;99.90
8684;DHT22;4379;59.744;18.206;2023-12-20T00:33:08;-1.70;99.90
8684;DHT22;4379;59.744;18.206;2023-12-20T00:35:35;-1.70;99.90
8684;DHT22;4379;59.744;18.206;2023-12-20T00:38:02;-1.70;99.90
8684;DHT22;4379;59.744;18.206;2023-12-20T00:40:29;-1.70;99.90
8684;DHT22;4379;59.744;18.206;2023-12-20T00:42:56;-1.90;99.90
8684;DHT22;4379;59.744;18.206;2023-12-20T00:45:23;-1.90;99.90
8684;DHT22;4379;59.744;18.206;2023-12-20T00:47:50;-2.00;99.90
8684;DHT22;4379;59.744;18.206;2023-12-20T00:50:17;-2.00;99.90
8684;DHT22;4379;59.744;18.206;2023-12-20T00:52:45;-1.90;99.90
8684;DHT22;4379;59.744;18.206;2023-12-20T00:55:13;-2.00;99.90
8684;DHT22;4379;59.744;18.206;2023-12-20T00:57:40;-1.90;99.90
8684;DHT22;4379;59.744;18.206;2023-12-20T01:00:08;-1.90;99.90
8684;DHT22;4379;59.744;18.206;2023-12-20T01:02:37;-2.00;99.90
8684;DHT22;4379;59.744;18.206;2023-12-20T01:05:05;-2.00;99.90
8684;DHT22;4379;59.744;18.206;2023-12-20T01:07:32;-2.10;99.90
8684;DHT22;4379;59.744;18.206;2023-12-20T01:09:59;-2.20;99.90
8684;DHT22;4379;59.744;18.206;2023-12-20T01:12:26;-2.20;99.90
8684;DHT22;4379;59.744;18.206;2023-12-20T01:14:53;-2.20;99.90
8684;DHT22;4379;59.744;18.206;2023-12-20T01:17:20;-2.30;99.90
8684;DHT22;4379;59.744;18.206;2023-12-20T01:19:47;-2.30;99.90
8684;DHT22;4379;59.744;18.206;2023-12-20T01:22:14;-2.30;99.90
8684;DHT22;4379;59.744;18.206;2023-12-20T01:24:42;-2.30;99.90
8684;DHT22;4379;59.744;18.206;2023-12-20T01:27:09;-2.30;99.90
8684;DHT22;4379;59.744;18.206;2023-12-20T01:29:36;-2.40;99.90
8684;DHT22;4379;59.744;18.206;2023-12-20T01:32:03;-2.40;99.90
8684;DHT22;4379;59.744;18.206;2023-12-20T01:34:30;-2.30;99.90
8684;DHT22;4379;59.744;18.206;2023-12-20T01:36:57;-2.40;99.90
8684;DHT22;4379;59.744;18.206;2023-12-20T01:39:24;-2.40;99.90
8684;DHT22;4379;59.744;18.206;2023-12-20T01:41:55;-2.40;99.90
8684;DHT22;4379;59.744;18.206;2023-12-20T01:44:22;-2.50;99.90
8684;DHT22;4379;59.744;18.206;2023-12-20T01:46:49;-2.50;99.90
8684;DHT22;4379;59.744;18.206;2023-12-20T01:49:16;-2.50;99.90
8684;DHT22;4379;59.744;18.206;2023-12-20T01:51:44;-2.60;99.90
8684;DHT22;4379;59.744;18.206;2023-12-20T01:54:12;-2.60;99.90
8684;DHT22;4379;59.744;18.206;2023-12-20T01:56:40;-2.70;99.90
8684;DHT22;4379;59.744;18.206;2023-12-20T01:59:07;-2.70;99.90
8684;DHT22;4379;59.744;18.206;2023-12-20T02:01:36;-2.70;99.90
8684;DHT22;4379;59.744;18.206;2023-12-20T02:04:03;-2.70;99.90
8684;DHT22;4379;59.744;18.206;2023-12-20T02:06:31;-2.70;99.90
8684;DHT22;4379;59.744;18.206;2023-12-20T02:09:00;-2.70;99.90
8684;DHT22;4379;59.744;18.206;2023-12-20T02:11:27;-2.70;99.90
8684;DHT22;4379;59.744;18.206;2023-12-20T02:13:55;-2.70;99.90
8684;DHT22;4379;59.744;18.206;2023-12-20T02:16:22;-2.70;99.90
8684;DHT22;4379;59.744;18.206;2023-12-20T02:18:49;-2.70;99.90
8684;DHT22;4379;59.744;18.206;2023-12-20T02:21:17;-2.70;99.90
8684;DHT22;4379;59.744;18.206;2023-12-20T02:23:44;-2.80;99.90
8684;DHT22;4379;59.744;18.206;2023-12-20T02:26:11;-2.80;99.90
8684;DHT22;4379;59.744;18.206;2023-12-20T02:28:40;-2.80;99.90
8684;DHT22;4379;59.744;18.206;2023-12-20T02:31:07;-2.80;99.90
8684;DHT22;4379;59.744;18.206;2023-12-20T02:33:34;-2.70;99.90
8684;DHT22;4379;59.744;18.206;2023-12-20T02:36:02;-2.60;99.90
8684;DHT22;4379;59.744;18.206;2023-12-20T02:38:29;-2.60;99.90
8684;DHT22;4379;59.744;18.206;2023-12-20T02:40:55;-2.60;99.90
8684;DHT22;4379;59.744;18.206;2023-12-20T02:43:22;-2.50;99.90
8684;DHT22;4379;59.744;18.206;2023-12-20T02:45:50;-2.50;99.90
8684;DHT22;4379;59.744;18.206;2023-12-20T02:48:17;-2.50;99.90
8684;DHT22;4379;59.744;18.206;2023-12-20T02:50:46;-2.40;99.90
8684;DHT22;4379;59.744;18.206;2023-12-20T02:53:13;-2.50;99.90
8684;DHT22;4379;59.744;18.206;2023-12-20T02:55:40;-2.50;99.90
8684;DHT22;4379;59.744;18.206;2023-12-20T02:58:07;-2.50;99.90
8684;DHT22;4379;59.744;18.206;2023-12-20T03:00:34;-2.50;99.90
8684;DHT22;4379;59.744;18.206;2023-12-20T03:03:01;-2.50;99.90
8684;DHT22;4379;59.744;18.206;2023-12-20T03:05:28;-2.50;99.90
8684;DHT22;4379;59.744;18.206;2023-12-20T03:07:55;-2.50;99.90
8684;DHT22;4379;59.744;18.206;2023-12-20T03:10:22;-2.60;99.90
8684;DHT22;4379;59.744;18.206;2023-12-20T03:12:53;-2.60;99.90
8684;DHT22;4379;59.744;18.206;2023-12-20T03:15:20;-2.70;99.90
8684;DHT22;4379;59.744;18.206;2023-12-20T03:17:47;-2.60;99.90
8684;DHT22;4379;59.744;18.206;2023-12-20T03:20:14;-2.60;99.90
8684;DHT22;4379;59.744;18.206;2023-12-20T03:22:42;-2.70;99.90
8684;DHT22;4379;59.744;18.206;2023-12-20T03:25:09;-2.80;99.90
8684;DHT22;4379;59.744;18.206;2023-12-20T03:27:39;-2.80;99.90
8684;DHT22;4379;59.744;18.206;2023-12-20T03:30:06;-2.80;99.90
8684;DHT22;4379;59.744;18.206;2023-12-20T03:32:33;-2.80;99.90
8684;DHT22;4379;59.744;18.206;2023-12-20T03:35:01;-2.80;99.90
8684;DHT22;4379;59.744;18.206;2023-12-20T03:37:28;-2.90;99.90
8684;DHT22;4379;59.744;18.206;2023-12-20T03:39:55;-2.80;99.90
8684;DHT22;4379;59.744;18.206;2023-12-20T03:42:22;-2.80;99.90
8684;DHT22;4379;59.744;18.206;2023-12-20T03:44:49;-2.80;99.90
8684;DHT22;4379;59.744;18.206;2023-12-20T03:47:16;-2.80;99.90
8684;DHT22;4379;59.744;18.206;2023-12-20T03:49:43;-2.90;99.90
8684;DHT22;4379;59.744;18.206;2023-12-20T03:52:10;-2.80;99.90
8684;DHT22;4379;59.744;18.206;2023-12-20T03:54:37;-2.90;99.90
8684;DHT22;4379;59.744;18.206;2023-12-20T03:57:04;-2.90;99.90
8684;DHT22;4379;59.744;18.206;2023-12-20T03:59:36;-2.90;99.90
8684;DHT22;4379;59.744;18.206;2023-12-20T04:02:03;-2.80;99.90
8684;DHT22;4379;59.744;18.206;2023-12-20T04:04:30;-2.80;99.90
8684;DHT22;4379;59.744;18.206;2023-12-20T04:06:58;-2.80;99.90
8684;DHT22;4379;59.744;18.206;2023-12-20T04:09:25;-2.70;99.90
8684;DHT22;4379;59.744;18.206;2023-12-20T04:11:52;-2.80;99.90
8684;DHT22;4379;59.744;18.206;2023-12-20T04:14:19;-2.90;99.90
8684;DHT22;4379;59.744;18.206;2023-12-20T04:16:46;-2.90;99.90
8684;DHT22;4379;59.744;18.206;2023-12-20T04:19:13;-2.90;99.90
8684;DHT22;4379;59.744;18.206;2023-12-20T04:21:41;-3.00;99.90
8684;DHT22;4379;59.744;18.206;2023-12-20T04:24:08;-3.00;99.90
8684;DHT22;4379;59.744;18.206;2023-12-20T04:26:35;-3.00;99.90
8684;DHT22;4379;59.744;18.206;2023-12-20T04:29:02;-2.90;99.90
8684;DHT22;4379;59.744;18.206;2023-12-20T04:31:29;-3.00;99.90
8684;DHT22;4379;59.744;18.206;2023-12-20T04:33:56;-3.00;99.90
8684;DHT22;4379;59.744;18.206;2023-12-20T04:36:23;-3.00;99.90
8684;DHT22;4379;59.744;18.206;2023-12-20T04:38:51;-3.00;99.90
8684;DHT22;4379;59.744;18.206;2023-12-20T04:41:18;-3.10;99.90
8684;DHT22;4379;59.744;18.206;2023-12-20T04:43:45;-3.10;99.90
8684;DHT22;4379;59.744;18.206;2023-12-20T04:46:12;-3.10;99.90
8684;DHT22;4379;59.744;18.206;2023-12-20T04:48:40;-3.00;99.90
8684;DHT22;4379;59.744;18.206;2023-12-20T04:51:07;-3.10;99.90
8684;DHT22;4379;59.744;18.206;2023-12-20T04:53:34;-3.00;99.90
8684;DHT22;4379;59.744;18.206;2023-12-20T04:56:01;-3.00;99.90
8684;DHT22;4379;59.744;18.206;2023-12-20T04:58:28;-3.00;99.90
8684;DHT22;4379;59.744;18.206;2023-12-20T05:00:55;-3.00;99.90
8684;DHT22;4379;59.744;18.206;2023-12-20T05:03:22;-3.00;99.90
8684;DHT22;4379;59.744;18.206;2023-12-20T05:05:49;-3.10;99.90
8684;DHT22;4379;59.744;18.206;2023-12-20T05:08:16;-3.10;99.90
8684;DHT22;4379;59.744;18.206;2023-12-20T05:10:43;-3.20;99.90
8684;DHT22;4379;59.744;18.206;2023-12-20T05:13:10;-3.20;99.90
8684;DHT22;4379;59.744;18.206;2023-12-20T05:15:37;-3.20;99.90
8684;DHT22;4379;59.744;18.206;2023-12-20T05:18:04;-3.20;99.90
8684;DHT22;4379;59.744;18.206;2023-12-20T05:20:32;-3.20;99.90
8684;DHT22;4379;59.744;18.206;2023-12-20T05:22:59;-3.10;99.90
8684;DHT22;4379;59.744;18.206;2023-12-20T05:25:26;-3.10;99.90
8684;DHT22;4379;59.744;18.206;2023-12-20T05:27:53;-3.00;99.90
8684;DHT22;4379;59.744;18.206;2023-12-20T05:30:20;-2.90;99.90
8684;DHT22;4379;59.744;18.206;2023-12-20T05:32:47;-2.90;99.90
8684;DHT22;4379;59.744;18.206;2023-12-20T05:35:15;-2.90;99.90
8684;DHT22;4379;59.744;18.206;2023-12-20T05:37:42;-2.90;99.90
8684;DHT22;4379;59.744;18.206;2023-12-20T05:40:10;-2.80;99.90
8684;DHT22;4379;59.744;18.206;2023-12-20T05:42:37;-2.60;99.90
8684;DHT22;4379;59.744;18.206;2023-12-20T05:45:05;-2.50;99.90
8684;DHT22;4379;59.744;18.206;2023-12-20T05:47:32;-2.40;99.90
8684;DHT22;4379;59.744;18.206;2023-12-20T05:49:59;-2.30;99.90
8684;DHT22;4379;59.744;18.206;2023-12-20T05:52:26;-2.20;99.90
8684;DHT22;4379;59.744;18.206;2023-12-20T05:54:53;-2.20;99.90
8684;DHT22;4379;59.744;18.206;2023-12-20T05:57:20;-2.10;99.90
8684;DHT22;4379;59.744;18.206;2023-12-20T05:59:47;-2.10;99.90
8684;DHT22;4379;59.744;18.206;2023-12-20T06:02:14;-2.10;99.90
8684;DHT22;4379;59.744;18.206;2023-12-20T06:04:45;-2.10;99.90
8684;DHT22;4379;59.744;18.206;2023-12-20T06:07:12;-2.00;99.90
8684;DHT22;4379;59.744;18.206;2023-12-20T06:09:40;-1.90;99.90
8684;DHT22;4379;59.744;18.206;2023-12-20T06:12:07;-1.80;99.90
8684;DHT22;4379;59.744;18.206;2023-12-20T06:14:35;-1.80;99.90
8684;DHT22;4379;59.744;18.206;2023-12-20T06:17:02;-1.80;99.90
8684;DHT22;4379;59.744;18.206;2023-12-20T06:19:29;-1.80;99.90
8684;DHT22;4379;59.744;18.206;2023-12-20T06:21:56;-1.80;99.90
8684;DHT22;4379;59.744;18.206;2023-12-20T06:24:23;-1.80;99.90
8684;DHT22;4379;59.744;18.206;2023-12-20T06:26:54;-1.80;99.90
8684;DHT22;4379;59.744;18.206;2023-12-20T06:29:22;-1.70;99.90
8684;DHT22;4379;59.744;18.206;2023-12-20T06:31:49;-1.70;99.90
8684;DHT22;4379;59.744;18.206;2023-12-20T06:34:16;-1.80;99.90
8684;DHT22;4379;59.744;18.206;2023-12-20T06:36:43;-1.80;99.90
8684;DHT22;4379;59.744;18.206;2023-12-20T06:39:10;-1.80;99.90
8684;DHT22;4379;59.744;18.206;2023-12-20T06:41:39;-1.70;99.90
8684;DHT22;4379;59.744;18.206;2023-12-20T06:44:06;-1.70;99.90
8684;DHT22;4379;59.744;18.206;2023-12-20T06:46:33;-1.70;99.90
8684;DHT22;4379;59.744;18.206;2023-12-20T06:49:00;-1.70;99.90
8684;DHT22;4379;59.744;18.206;2023-12-20T06:51:27;-1.60;99.90
8684;DHT22;4379;59.744;18.206;2023-12-20T06:53:54;-1.70;99.90
8684;DHT22;4379;59.744;18.206;2023-12-20T06:56:21;-1.70;99.90
8684;DHT22;4379;59.744;18.206;2023-12-20T06:58:48;-1.70;99.90
8684;DHT22;4379;59.744;18.206;2023-12-20T07:01:16;-1.70;99.90
8684;DHT22;4379;59.744;18.206;2023-12-20T07:03:43;-1.80;99.90
8684;DHT22;4379;59.744;18.206;2023-12-20T07:06:10;-1.70;99.90
8684;DHT22;4379;59.744;18.206;2023-12-20T07:08:39;-1.70;99.90
8684;DHT22;4379;59.744;18.206;2023-12-20T07:11:07;-1.70;99.90
8684;DHT22;4379;59.744;18.206;2023-12-20T07:13:34;-1.60;99.90
8684;DHT22;4379;59.744;18.206;2023-12-20T07:16:01;-1.50;99.90
8684;DHT22;4379;59.744;18.206;2023-12-20T07:18:28;-1.70;99.90
8684;DHT22;4379;59.744;18.206;2023-12-20T07:20:55;-1.70;99.90
8684;DHT22;4379;59.744;18.206;2023-12-20T07:23:22;-1.70;99.90
8684;DHT22;4379;59.744;18.206;2023-12-20T07:25:49;-1.70;99.90
8684;DHT22;4379;59.744;18.206;2023-12-20T07:28:16;-1.70;99.90
8684;DHT22;4379;59.744;18.206;2023-12-20T07:30:43;-1.80;99.90
8684;DHT22;4379;59.744;18.206;2023-12-20T07:33:10;-1.90;99.90
8684;DHT22;4379;59.744;18.206;2023-12-20T07:35:39;-1.80;99.90
8684;DHT22;4379;59.744;18.206;2023-12-20T07:38:06;-1.70;99.90
8684;DHT22;4379;59.744;18.206;2023-12-20T07:40:33;-1.40;99.90
8684;DHT22;4379;59.744;18.206;2023-12-20T07:43:00;-1.50;99.90
8684;DHT22;4379;59.744;18.206;2023-12-20T07:45:27;-1.60;99.90
8684;DHT22;4379;59.744;18.206;2023-12-20T07:47:55;-1.50;99.90
8684;DHT22;4379;59.744;18.206;2023-12-20T07:50:22;-1.60;99.90
8684;DHT22;4379;59.744;18.206;2023-12-20T07:52:49;-1.70;99.90
8684;DHT22;4379;59.744;18.206;2023-12-20T07:55:16;-1.80;99.90
8684;DHT22;4379;59.744;18.206;2023-12-20T07:57:43;-1.80;99.90
8684;DHT22;4379;59.744;18.206;2023-12-20T08:00:11;-1.70;99.90
8684;DHT22;4379;59.744;18.206;2023-12-20T08:02:38;-1.60;99.90
8684;DHT22;4379;59.744;18.206;2023-12-20T08:05:05;-1.50;99.90
8684;DHT22;4379;59.744;18.206;2023-12-20T08:07:32;-1.40;99.90
8684;DHT22;4379;59.744;18.206;2023-12-20T08:09:59;-1.50;99.90
8684;DHT22;4379;59.744;18.206;2023-12-20T08:12:26;-1.50;99.90
8684;DHT22;4379;59.744;18.206;2023-12-20T08:14:54;-1.30;99.90
8684;DHT22;4379;59.744;18.206;2023-12-20T08:17:21;-1.50;99.90
8684;DHT22;4379;59.744;18.206;2023-12-20T08:19:50;-1.50;99.90
8684;DHT22;4379;59.744;18.206;2023-12-20T08:22:17;-1.50;99.90
8684;DHT22;4379;59.744;18.206;2023-12-20T08:24:44;-1.50;99.90
8684;DHT22;4379;59.744;18.206;2023-12-20T08:27:12;-1.50;99.90
8684;DHT22;4379;59.744;18.206;2023-12-20T08:29:39;-1.50;99.90
8684;DHT22;4379;59.744;18.206;2023-12-20T08:32:06;-1.50;99.90
8684;DHT22;4379;59.744;18.206;2023-12-20T08:34:33;-1.60;99.90
8684;DHT22;4379;59.744;18.206;2023-12-20T08:37:00;-1.60;99.90
8684;DHT22;4379;59.744;18.206;2023-12-20T08:39:27;-1.60;99.90
8684;DHT22;4379;59.744;18.206;2023-12-20T08:41:57;-1.50;99.90
8684;DHT22;4379;59.744;18.206;2023-12-20T08:44:23;-1.50;99.90
8684;DHT22;4379;59.744;18.206;2023-12-20T08:46:51;-1.40;99.90
8684;DHT22;4379;59.744;18.206;2023-12-20T08:49:18;-1.30;99.90
8684;DHT22;4379;59.744;18.206;2023-12-20T08:51:45;-1.50;99.90
8684;DHT22;4379;59.744;18.206;2023-12-20T08:54:12;-1.30;99.90
8684;DHT22;4379;59.744;18.206;2023-12-20T08:56:40;-1.20;99.90
8684;DHT22;4379;59.744;18.206;2023-12-20T08:59:06;-1.30;99.90
8684;DHT22;4379;59.744;18.206;2023-12-20T09:01:33;-1.40;99.90
8684;DHT22;4379;59.744;18.206;2023-12-20T09:04:01;-1.50;99.90
8684;DHT22;4379;59.744;18.206;2023-12-20T09:06:28;-1.30;99.90
8684;DHT22;4379;59.744;18.206;2023-12-20T09:08:55;-1.20;99.90
8684;DHT22;4379;59.744;18.206;2023-12-20T09:11:22;-1.30;99.90
8684;DHT22;4379;59.744;18.206;2023-12-20T09:13:49;-1.30;99.90
8684;DHT22;4379;59.744;18.206;2023-12-20T09:16:17;-1.20;99.90
8684;DHT22;4379;59.744;18.206;2023-12-20T09:18:44;-1.30;99.90
8684;DHT22;4379;59.744;18.206;2023-12-20T09:21:11;-1.30;99.90
8684;DHT22;4379;59.744;18.206;2023-12-20T09:23:39;-1.40;99.90
8684;DHT22;4379;59.744;18.206;2023-12-20T09:26:06;-1.30;99.90
8684;DHT22;4379;59.744;18.206;2023-12-20T09:28:33;-1.20;99.90
8684;DHT22;4379;59.744;18.206;2023-12-20T09:31:04;-1.00;99.90
8684;DHT22;4379;59.744;18.206;2023-12-20T09:33:33;-1.10;99.90
8684;DHT22;4379;59.744;18.206;2023-12-20T09:36:00;-1.40;99.90
8684;DHT22;4379;59.744;18.206;2023-12-20T09:38:27;-1.20;99.90
8684;DHT22;4379;59.744;18.206;2023-12-20T09:40:55;-1.20;99.90
8684;DHT22;4379;59.744;18.206;2023-12-20T09:43:24;-1.00;99.90
8684;DHT22;4379;59.744;18.206;2023-12-20T09:45:53;-1.00;99.90
8684;DHT22;4379;59.744;18.206;2023-12-20T09:48:21;-1.10;99.90
8684;DHT22;4379;59.744;18.206;2023-12-20T09:50:48;-1.00;99.90
8684;DHT22;4379;59.744;18.206;2023-12-20T09:53:19;-0.90;99.90
8684;DHT22;4379;59.744;18.206;2023-12-20T09:55:48;-0.90;99.90
8684;DHT22;4379;59.744;18.206;2023-12-20T09:58:18;-0.90;99.90
8684;DHT22;4379;59.744;18.206;2023-12-20T10:00:46;-1.10;99.90
8684;DHT22;4379;59.744;18.206;2023-12-20T10:03:14;-1.00;99.90
8684;DHT22;4379;59.744;18.206;2023-12-20T10:05:43;-1.10;99.90
8684;DHT22;4379;59.744;18.206;2023-12-20T10:08:11;-1.10;99.90
8684;DHT22;4379;59.744;18.206;2023-12-20T10:10:38;-1.10;99.90
8684;DHT22;4379;59.744;18.206;2023-12-20T10:13:15;-1.00;99.90
8684;DHT22;4379;59.744;18.206;2023-12-20T10:15:42;-0.90;99.90
8684;DHT22;4379;59.744;18.206;2023-12-20T10:18:11;-0.90;99.90
8684;DHT22;4379;59.744;18.206;2023-12-20T10:20:40;-1.00;99.90
8684;DHT22;4379;59.744;18.206;2023-12-20T10:23:08;-1.10;99.90
8684;DHT22;4379;59.744;18.206;2023-12-20T10:25:35;-1.10;99.90
8684;DHT22;4379;59.744;18.206;2023-12-20T10:28:15;-1.10;99.90
8684;DHT22;4379;59.744;18.206;2023-12-20T10:30:48;-1.10;99.90
8684;DHT22;4379;59.744;18.206;2023-12-20T10:33:24;-1.00;99.90
8684;DHT22;4379;59.744;18.206;2023-12-20T10:35:53;-1.00;99.90
8684;DHT22;4379;59.744;18.206;2023-12-20T10:38:21;-1.00;99.90
8684;DHT22;4379;59.744;18.206;2023-12-20T10:40:49;-1.00;99.90
8684;DHT22;4379;59.744;18.206;2023-12-20T10:43:21;-1.00;99.90
8684;DHT22;4379;59.744;18.206;2023-12-20T10:45:49;-1.00;99.90
8684;DHT22;4379;59.744;18.206;2023-12-20T10:48:16;-0.90;99.90
8684;DHT22;4379;59.744;18.206;2023-12-20T10:50:44;-0.90;99.90
8684;DHT22;4379;59.744;18.206;2023-12-20T10:53:13;-0.80;99.90
8684;DHT22;4379;59.744;18.206;2023-12-20T10:55:41;-0.70;99.90
8684;DHT22;4379;59.744;18.206;2023-12-20T10:58:09;-0.60;99.90
8684;DHT22;4379;59.744;18.206;2023-12-20T11:00:41;-0.40;99.90
8684;DHT22;4379;59.744;18.206;2023-12-20T11:03:11;-0.50;99.90
8684;DHT22;4379;59.744;18.206;2023-12-20T11:05:58;-0.40;99.90
8684;DHT22;4379;59.744;18.206;2023-12-20T11:11:09;-0.30;99.90
8684;DHT22;4379;59.744;18.206;2023-12-20T11:14:05;-0.30;99.90
8684;DHT22;4379;59.744;18.206;2023-12-20T11:16:33;-0.30;99.90
8684;DHT22;4379;59.744;18.206;2023-12-20T11:19:13;-0.40;99.90
8684;DHT22;4379;59.744;18.206;2023-12-20T11:21:41;-0.40;99.90
8684;DHT22;4379;59.744;18.206;2023-12-20T11:24:09;-0.20;99.90
8684;DHT22;4379;59.744;18.206;2023-12-20T11:26:37;-0.20;99.90
8684;DHT22;4379;59.744;18.206;2023-12-20T11:29:29;-0.30;99.90
8684;DHT22;4379;59.744;18.206;2023-12-20T11:31:56;-0.30;99.90
8684;DHT22;4379;59.744;18.206;2023-12-20T11:34:27;-0.40;99.90
8684;DHT22;4379;59.744;18.206;2023-12-20T11:36:58;-0.30;99.90
8684;DHT22;4379;59.744;18.206;2023-12-20T11:39:27;-0.30;99.90
8684;DHT22;4379;59.744;18.206;2023-12-20T11:41:56;-0.20;99.90
8684;DHT22;4379;59.744;18.206;2023-12-20T11:44:25;-0.30;99.90
8684;DHT22;4379;59.744;18.206;2023-12-20T11:46:54;-0.40;99.90
8684;DHT22;4379;59.744;18.206;2023-12-20T11:49:23;-0.30;99.90
8684;DHT22;4379;59.744;18.206;2023-12-20T11:51:51;-0.40;99.90
8684;DHT22;4379;59.744;18.206;2023-12-20T11:54:19;-0.40;99.90
8684;DHT22;4379;59.744;18.206;2023-12-20T11:56:46;-0.30;99.90
8684;DHT22;4379;59.744;18.206;2023-12-20T11:59:14;-0.30;99.90
8684;DHT22;4379;59.744;18.206;2023-12-20T12:01:50;-0.10;99.90
8684;DHT22;4379;59.744;18.206;2023-12-20T12:04:18;-0.10;99.90
8684;DHT22;4379;59.744;18.206;2023-12-20T12:06:46;-0.10;99.90
8684;DHT22;4379;59.744;18.206;2023-12-20T12:09:13;0.00;99.90
8684;DHT22;4379;59.744;18.206;2023-12-20T12:11:40;-0.10;99.90
8684;DHT22;4379;59.744;18.206;2023-12-20T12:14:07;-0.20;99.90
8684;DHT22;4379;59.744;18.206;2023-12-20T12:16:34;-0.20;99.90
8684;DHT22;4379;59.744;18.206;2023-12-20T12:19:02;-0.10;99.90
8684;DHT22;4379;59.744;18.206;2023-12-20T12:21:29;0.00;99.90
8684;DHT22;4379;59.744;18.206;2023-12-20T12:24:07;-0.10;99.90
8684;DHT22;4379;59.744;18.206;2023-12-20T12:26:34;-0.10;99.90
8684;DHT22;4379;59.744;18.206;2023-12-20T12:29:01;-0.10;99.90
8684;DHT22;4379;59.744;18.206;2023-12-20T12:31:30;-0.20;99.90
8684;DHT22;4379;59.744;18.206;2023-12-20T12:33:57;0.00;99.90
8684;DHT22;4379;59.744;18.206;2023-12-20T12:36:24;0.00;99.90
8684;DHT22;4379;59.744;18.206;2023-12-20T12:38:51;0.20;99.90
8684;DHT22;4379;59.744;18.206;2023-12-20T12:41:18;0.00;99.90
8684;DHT22;4379;59.744;18.206;2023-12-20T12:43:46;0.10;99.90
8684;DHT22;4379;59.744;18.206;2023-12-20T12:46:13;0.20;99.90
8684;DHT22;4379;59.744;18.206;2023-12-20T12:48:40;0.20;99.90
8684;DHT22;4379;59.744;18.206;2023-12-20T12:51:10;0.10;99.90
8684;DHT22;4379;59.744;18.206;2023-12-20T12:53:40;0.00;99.90
8684;DHT22;4379;59.744;18.206;2023-12-20T12:56:07;0.00;99.90
8684;DHT22;4379;59.744;18.206;2023-12-20T12:58:35;0.10;99.90
8684;DHT22;4379;59.744;18.206;2023-12-20T13:01:02;0.10;99.90
8684;DHT22;4379;59.744;18.206;2023-12-20T13:03:30;0.10;99.90
8684;DHT22;4379;59.744;18.206;2023-12-20T13:05:58;0.10;99.90
8684;DHT22;4379;59.744;18.206;2023-12-20T13:08:25;0.00;99.90
8684;DHT22;4379;59.744;18.206;2023-12-20T13:10:53;0.00;99.90
8684;DHT22;4379;59.744;18.206;2023-12-20T13:13:20;0.10;99.90
8684;DHT22;4379;59.744;18.206;2023-12-20T13:15:47;0.00;99.90
8684;DHT22;4379;59.744;18.206;2023-12-20T13:18:18;-0.10;99.90
8684;DHT22;4379;59.744;18.206;2023-12-20T13:20:46;-0.20;99.90
8684;DHT22;4379;59.744;18.206;2023-12-20T13:23:13;-0.40;99.90
8684;DHT22;4379;59.744;18.206;2023-12-20T13:25:41;-0.30;99.90
8684;DHT22;4379;59.744;18.206;2023-12-20T13:28:08;-0.20;99.90
8684;DHT22;4379;59.744;18.206;2023-12-20T13:30:36;-0.20;99.90
8684;DHT22;4379;59.744;18.206;2023-12-20T13:33:05;-0.10;99.90
8684;DHT22;4379;59.744;18.206;2023-12-20T13:35:33;-0.10;99.90
8684;DHT22;4379;59.744;18.206;2023-12-20T13:38:01;-0.20;99.90
8684;DHT22;4379;59.744;18.206;2023-12-20T13:40:28;-0.40;99.90
8684;DHT22;4379;59.744;18.206;2023-12-20T13:42:55;-0.30;99.90
8684;DHT22;4379;59.744;18.206;2023-12-20T13:45:22;-0.20;99.90
8684;DHT22;4379;59.744;18.206;2023-12-20T13:47:50;-0.40;99.90
8684;DHT22;4379;59.744;18.206;2023-12-20T13:50:17;-0.40;99.90
8684;DHT22;4379;59.744;18.206;2023-12-20T13:52:44;-0.50;99.90
8684;DHT22;4379;59.744;18.206;2023-12-20T13:55:13;-0.50;99.90
8684;DHT22;4379;59.744;18.206;2023-12-20T13:57:40;-0.50;99.90
8684;DHT22;4379;59.744;18.206;2023-12-20T14:00:21;-0.60;99.90
8684;DHT22;4379;59.744;18.206;2023-12-20T14:02:49;-0.60;99.90
8684;DHT22;4379;59.744;18.206;2023-12-20T14:05:17;-0.40;99.90
8684;DHT22;4379;59.744;18.206;2023-12-20T14:07:45;-0.50;99.90
8684;DHT22;4379;59.744;18.206;2023-12-20T14:10:14;-0.50;99.90
8684;DHT22;4379;59.744;18.206;2023-12-20T14:12:41;-0.50;99.90
8684;DHT22;4379;59.744;18.206;2023-12-20T14:15:08;-0.50;99.90
8684;DHT22;4379;59.744;18.206;2023-12-20T14:17:38;-0.60;99.90
8684;DHT22;4379;59.744;18.206;2023-12-20T14:20:06;-0.60;99.90
8684;DHT22;4379;59.744;18.206;2023-12-20T14:22:34;-0.50;99.90
8684;DHT22;4379;59.744;18.206;2023-12-20T14:25:02;-0.40;99.90
8684;DHT22;4379;59.744;18.206;2023-12-20T14:27:30;-0.30;99.90
8684;DHT22;4379;59.744;18.206;2023-12-20T14:29:57;-0.20;99.90
8684;DHT22;4379;59.744;18.206;2023-12-20T14:32:27;-0.10;99.90
8684;DHT22;4379;59.744;18.206;2023-12-20T14:34:55;-0.20;99.90
8684;DHT22;4379;59.744;18.206;2023-12-20T14:37:22;-0.40;99.90
8684;DHT22;4379;59.744;18.206;2023-12-20T14:39:49;-0.30;99.90
8684;DHT22;4379;59.744;18.206;2023-12-20T14:42:16;-0.50;99.90
8684;DHT22;4379;59.744;18.206;2023-12-20T14:44:43;-0.40;99.90
8684;DHT22;4379;59.744;18.206;2023-12-20T14:47:10;-0.50;99.90
8684;DHT22;4379;59.744;18.206;2023-12-20T14:49:37;-0.30;99.90
8684;DHT22;4379;59.744;18.206;2023-12-20T14:52:05;-0.30;99.90
8684;DHT22;4379;59.744;18.206;2023-12-20T14:54:32;-0.30;99.90
8684;DHT22;4379;59.744;18.206;2023-12-20T14:56:59;-0.40;99.90
8684;DHT22;4379;59.744;18.206;2023-12-20T14:59:31;-0.40;99.90
8684;DHT22;4379;59.744;18.206;2023-12-20T15:01:59;-0.30;99.90
8684;DHT22;4379;59.744;18.206;2023-12-20T15:04:27;-0.30;99.90
8684;DHT22;4379;59.744;18.206;2023-12-20T15:06:56;-0.20;99.90
8684;DHT22;4379;59.744;18.206;2023-12-20T15:09:23;-0.30;99.90
8684;DHT22;4379;59.744;18.206;2023-12-20T15:11:51;-0.40;99.90
8684;DHT22;4379;59.744;18.206;2023-12-20T15:14:18;-0.40;99.90
8684;DHT22;4379;59.744;18.206;2023-12-20T15:16:46;-0.20;99.90
8684;DHT22;4379;59.744;18.206;2023-12-20T15:19:14;-0.40;99.90
8684;DHT22;4379;59.744;18.206;2023-12-20T15:21:41;-0.40;99.90
8684;DHT22;4379;59.744;18.206;2023-12-20T15:24:13;-0.40;99.90
8684;DHT22;4379;59.744;18.206;2023-12-20T15:26:46;-0.30;99.90
8684;DHT22;4379;59.744;18.206;2023-12-20T15:29:14;-0.30;99.90
8684;DHT22;4379;59.744;18.206;2023-12-20T15:31:43;-0.30;99.90
8684;DHT22;4379;59.744;18.206;2023-12-20T15:34:10;-0.20;99.90
8684;DHT22;4379;59.744;18.206;2023-12-20T15:36:38;-0.10;99.90
8684;DHT22;4379;59.744;18.206;2023-12-20T15:39:06;-0.10;99.90
8684;DHT22;4379;59.744;18.206;2023-12-20T15:41:35;-0.10;99.90
8684;DHT22;4379;59.744;18.206;2023-12-20T15:44:02;0.00;99.90
8684;DHT22;4379;59.744;18.206;2023-12-20T15:46:29;-0.10;99.90
8684;DHT22;4379;59.744;18.206;2023-12-20T15:49:01;-0.10;99.90
8684;DHT22;4379;59.744;18.206;2023-12-20T15:51:29;-0.10;99.90
8684;DHT22;4379;59.744;18.206;2023-12-20T15:53:56;-0.10;99.90